Terminal Aerodrome Forecast
Issued by NWS Albany, NY

Home | Current Version | Previous Version | Text Only | Print | Product List | Glossary On
Versions: 1 2 3 4 5 6 7 8 9 10 11 12 13 14 15 16 17 18 19 20 21 22
000
FTUS41 KALY 270301 AAB
TAFGFL
TAF AMD
KGFL 270301Z 2703/2724 VRB02KT P6SM VCSH OVC025
      TEMPO 2703/2707 4SM BR
     FM270700 VRB03KT 2SM -FZRA BR OVC015
     FM270900 VRB03KT 2SM -RA BR OVC008
     FM271800 VRB03KT 4SM BR OVC012 PROB30 2718/2723 2SM -RA OVC008=

USA.gov is the U.S. government's official web portal to all federal, state and local government web resources and services.